createdAt,value
2022-08-08T00:01:07.982Z,1.80
2022-08-08T00:04:16.214Z,2.40
2022-08-08T00:07:13.756Z,2.80
2022-08-08T00:09:59.089Z,2.77
2022-08-08T00:12:38.042Z,2.33
2022-08-08T00:15:17.634Z,2.80
2022-08-08T00:18:35.190Z,2.53
2022-08-08T00:21:07.560Z,2.27
2022-08-08T00:23:51.227Z,2.07
2022-08-08T00:26:43.015Z,2.33
2022-08-08T00:29:45.817Z,2.60
2022-08-08T00:32:34.979Z,2.73
2022-08-08T00:35:21.413Z,2.63
2022-08-08T00:38:31.862Z,2.13
2022-08-08T00:41:55.565Z,2.43
2022-08-08T00:44:44.145Z,2.70
2022-08-08T00:48:06.733Z,2.13
2022-08-08T00:51:38.851Z,2.27
2022-08-08T00:59:43.799Z,2.67
2022-08-08T01:03:58.546Z,3.30
2022-08-08T01:06:05.523Z,2.90
2022-08-08T01:09:48.621Z,2.70
2022-08-08T01:12:36.951Z,2.60
2022-08-08T01:16:04.235Z,2.93
2022-08-08T01:19:13.725Z,2.13
2022-08-08T01:22:35.342Z,2.30
2022-08-08T01:25:48.324Z,2.27
2022-08-08T01:28:54.639Z,2.70
2022-08-08T01:32:21.282Z,2.77
2022-08-08T01:35:17.953Z,2.50
2022-08-08T01:38:10.707Z,2.90
2022-08-08T01:41:45.617Z,2.63
2022-08-08T01:44:59.178Z,2.37
2022-08-08T01:48:30.862Z,2.47
2022-08-08T01:51:31.862Z,2.83
2022-08-08T01:55:46.330Z,2.30
2022-08-08T01:58:38.857Z,3.00
2022-08-08T02:02:02.785Z,2.47
2022-08-08T02:04:54.848Z,2.57
2022-08-08T02:07:41.757Z,2.93
2022-08-08T02:10:54.504Z,2.93
2022-08-08T02:13:54.790Z,2.97
2022-08-08T02:17:17.947Z,2.80
2022-08-08T02:21:00.112Z,2.67
2022-08-08T02:23:36.881Z,2.67
2022-08-08T02:26:30.165Z,2.93
2022-08-08T02:29:51.691Z,2.50
2022-08-08T02:33:10.348Z,2.50
2022-08-08T02:36:16.295Z,3.03
2022-08-08T02:39:40.321Z,2.50
2022-08-08T02:44:39.289Z,2.23
2022-08-08T02:46:19.416Z,2.47
2022-08-08T02:49:51.233Z,3.03
2022-08-08T02:53:01.394Z,2.33
2022-08-08T02:56:09.530Z,2.47
2022-08-08T02:59:25.757Z,2.60
2022-08-08T03:02:38.953Z,2.60
2022-08-08T03:05:45.551Z,2.33
2022-08-08T03:08:58.600Z,2.50
2022-08-08T03:11:59.856Z,2.60
2022-08-08T03:15:59.704Z,2.63
2022-08-08T03:18:31.774Z,2.83
2022-08-08T03:21:01.738Z,3.03
2022-08-08T03:23:51.119Z,3.33
2022-08-08T03:26:42.134Z,2.63
2022-08-08T03:29:26.718Z,3.07
2022-08-08T03:32:29.049Z,2.97
2022-08-08T03:34:58.065Z,2.93
2022-08-08T03:37:59.341Z,2.73
2022-08-08T03:40:18.337Z,2.67
2022-08-08T03:43:16.734Z,2.37
2022-08-08T03:46:06.847Z,2.57
2022-08-08T03:49:31.143Z,2.70
2022-08-08T03:51:50.666Z,3.13
2022-08-08T03:54:40.700Z,2.80
2022-08-08T03:58:09.644Z,2.90
2022-08-08T04:00:07.655Z,3.00
2022-08-08T04:02:51.687Z,2.80
2022-08-08T04:05:27.340Z,3.07
2022-08-08T04:08:00.714Z,2.90
2022-08-08T04:10:32.713Z,2.87
2022-08-08T04:13:18.071Z,2.53
2022-08-08T04:16:04.044Z,2.80
2022-08-08T04:18:44.873Z,3.07
2022-08-08T04:21:23.320Z,3.03
2022-08-08T04:24:05.251Z,2.37
2022-08-08T04:26:57.095Z,2.83
2022-08-08T04:29:27.438Z,2.90
2022-08-08T04:32:00.770Z,3.33
2022-08-08T04:34:32.216Z,3.40
2022-08-08T04:37:12.548Z,3.40
2022-08-08T04:40:05.869Z,3.30
2022-08-08T04:42:33.857Z,2.93
2022-08-08T04:45:02.219Z,2.70
2022-08-08T04:47:29.833Z,3.43
2022-08-08T04:50:04.648Z,2.63
2022-08-08T04:52:36.027Z,2.83
2022-08-08T04:55:12.590Z,2.80
2022-08-08T04:57:39.764Z,3.40
2022-08-08T05:00:10.260Z,3.00
2022-08-08T05:02:38.019Z,3.00
2022-08-08T05:05:16.214Z,3.00
2022-08-08T05:07:48.900Z,3.23
2022-08-08T05:10:17.257Z,2.83
2022-08-08T05:13:00.135Z,3.20
2022-08-08T05:16:52.195Z,2.60
2022-08-08T05:18:21.186Z,2.20
2022-08-08T05:20:52.199Z,2.07
2022-08-08T05:23:21.002Z,2.23
2022-08-08T05:25:49.540Z,2.60
2022-08-08T05:28:27.962Z,2.17
2022-08-08T05:31:19.204Z,1.87
2022-08-08T05:33:55.582Z,1.90
2022-08-08T05:36:28.086Z,2.47
2022-08-08T05:38:59.221Z,2.07
2022-08-08T05:41:27.805Z,1.93
2022-08-08T05:44:11.505Z,2.33
2022-08-08T05:46:40.564Z,1.60
2022-08-08T05:49:16.519Z,2.27
2022-08-08T05:51:48.960Z,1.93
2022-08-08T05:54:42.731Z,1.97
2022-08-08T05:57:57.471Z,1.70
2022-08-08T06:00:24.817Z,1.90
2022-08-08T06:03:17.171Z,2.00
2022-08-08T06:06:05.255Z,2.27
2022-08-08T06:09:00.252Z,1.60
2022-08-08T06:11:45.923Z,1.93
2022-08-08T06:14:17.721Z,1.90
2022-08-08T06:19:41.719Z,2.10
2022-08-08T06:24:59.170Z,2.20
2022-08-08T06:27:48.217Z,1.90
2022-08-08T06:30:20.373Z,2.17
2022-08-08T06:33:01.384Z,1.93
2022-08-08T06:36:06.137Z,2.00
2022-08-08T06:38:28.937Z,1.90
2022-08-08T06:41:07.463Z,1.93
2022-08-08T06:43:37.355Z,1.57
2022-08-08T06:46:17.180Z,1.50
2022-08-08T06:48:52.950Z,1.50
2022-08-08T06:51:22.385Z,1.47
2022-08-08T06:53:56.496Z,1.40
2022-08-08T06:56:36.792Z,1.37
2022-08-08T06:59:12.229Z,1.63
2022-08-08T07:02:21.357Z,1.20
2022-08-08T07:05:07.072Z,1.60
2022-08-08T07:07:51.934Z,1.27
2022-08-08T07:10:24.941Z,1.20
2022-08-08T07:13:04.821Z,1.33
2022-08-08T07:16:10.688Z,1.00
2022-08-08T07:19:24.286Z,1.27
2022-08-08T07:22:11.989Z,1.20
2022-08-08T07:25:06.865Z,1.00
2022-08-08T07:28:02.546Z,1.40
2022-08-08T07:30:37.900Z,1.47
2022-08-08T07:33:06.332Z,1.73
2022-08-08T07:35:39.880Z,1.77
2022-08-08T07:38:20.529Z,1.00
2022-08-08T07:41:04.590Z,1.20
2022-08-08T07:43:37.703Z,1.50
2022-08-08T07:46:23.616Z,1.50
2022-08-08T07:48:58.397Z,1.07
2022-08-08T07:51:45.155Z,1.23
2022-08-08T07:54:33.151Z,1.20
2022-08-08T07:57:36.399Z,1.60
2022-08-08T08:00:16.649Z,1.27
2022-08-08T08:03:48.781Z,1.27
2022-08-08T08:06:27.083Z,1.43
2022-08-08T08:09:07.215Z,1.40
2022-08-08T08:11:52.480Z,1.67
2022-08-08T08:14:40.201Z,1.10
2022-08-08T08:17:10.239Z,1.17
2022-08-08T08:19:45.848Z,1.10
2022-08-08T08:22:25.444Z,1.20
2022-08-08T08:25:08.198Z,0.90
2022-08-08T08:27:38.823Z,1.70
2022-08-08T08:30:14.878Z,1.37
2022-08-08T08:32:51.237Z,1.03
2022-08-08T08:35:21.762Z,1.63
2022-08-08T08:38:17.598Z,1.40
2022-08-08T08:40:51.419Z,1.40
2022-08-08T08:43:20.681Z,1.53
2022-08-08T08:45:58.024Z,1.70
2022-08-08T08:48:32.254Z,1.10
2022-08-08T08:51:03.855Z,1.70
2022-08-08T08:53:56.753Z,1.57
2022-08-08T08:56:31.821Z,2.30
2022-08-08T08:59:05.907Z,1.30
2022-08-08T09:01:43.859Z,1.60
2022-08-08T09:04:31.076Z,1.30
2022-08-08T09:07:12.830Z,1.60
2022-08-08T09:09:54.925Z,1.50
2022-08-08T09:12:28.547Z,1.17
2022-08-08T09:14:58.759Z,1.93
2022-08-08T09:17:41.610Z,1.50
2022-08-08T09:22:00.703Z,1.50
2022-08-08T09:23:11.164Z,1.10
2022-08-08T09:26:01.945Z,1.33
2022-08-08T09:28:38.883Z,1.33
2022-08-08T09:31:42.595Z,1.70
2022-08-08T09:34:32.244Z,1.30
2022-08-08T09:37:57.063Z,1.40
2022-08-08T09:40:11.333Z,1.87
2022-08-08T09:42:51.524Z,1.60
2022-08-08T09:46:02.201Z,1.30
2022-08-08T09:48:26.058Z,1.40
2022-08-08T09:50:59.078Z,1.67
2022-08-08T09:53:58.971Z,1.87
2022-08-08T09:56:41.460Z,1.43
2022-08-08T10:00:01.701Z,1.40
2022-08-08T10:02:04.781Z,1.50
2022-08-08T10:04:42.229Z,1.30
2022-08-08T10:07:16.786Z,1.13
2022-08-08T10:09:59.686Z,1.67
2022-08-08T10:12:53.756Z,1.27
2022-08-08T10:15:36.978Z,1.40
2022-08-08T10:18:12.054Z,1.40
2022-08-08T10:20:57.895Z,1.20
2022-08-08T10:23:57.928Z,1.13
2022-08-08T10:26:57.248Z,1.60
2022-08-08T10:29:56.811Z,1.37
2022-08-08T10:32:33.923Z,1.30
2022-08-08T10:35:11.525Z,1.80
2022-08-08T10:38:03.014Z,1.17
2022-08-08T10:40:33.008Z,1.60
2022-08-08T10:43:05.632Z,1.60
2022-08-08T10:45:55.205Z,1.50
2022-08-08T10:48:38.847Z,1.47
2022-08-08T10:51:30.739Z,1.00
2022-08-08T10:54:00.118Z,1.43
2022-08-08T10:56:35.983Z,1.30
2022-08-08T10:59:14.595Z,1.40
2022-08-08T11:01:54.608Z,1.40
2022-08-08T11:04:29.695Z,1.43
2022-08-08T11:07:00.732Z,1.30
2022-08-08T11:09:32.231Z,1.57
2022-08-08T11:12:13.548Z,1.07
2022-08-08T11:14:57.074Z,1.30
2022-08-08T11:17:59.445Z,1.57
2022-08-08T11:20:27.743Z,2.13
2022-08-08T11:22:59.100Z,2.43
2022-08-08T11:25:51.980Z,1.20
2022-08-08T11:28:29.689Z,1.10
2022-08-08T11:31:03.930Z,1.10
2022-08-08T11:33:53.066Z,1.40
2022-08-08T11:36:28.017Z,1.30
2022-08-08T11:38:57.185Z,1.30
2022-08-08T11:41:27.839Z,1.37
2022-08-08T11:43:59.762Z,1.23
2022-08-08T11:46:31.458Z,1.27
2022-08-08T11:49:06.797Z,1.13
2022-08-08T11:51:40.304Z,1.20
2022-08-08T11:54:31.453Z,1.53
2022-08-08T11:57:30.203Z,1.50
2022-08-08T12:00:07.479Z,1.10
2022-08-08T12:02:57.229Z,1.60
2022-08-08T12:05:40.931Z,1.70
2022-08-08T12:08:08.028Z,2.03
2022-08-08T12:10:51.314Z,1.23
2022-08-08T12:13:37.652Z,1.40
2022-08-08T12:16:16.942Z,1.30
2022-08-08T12:18:55.663Z,1.30
2022-08-08T12:21:59.493Z,1.50
2022-08-08T12:24:21.044Z,1.23
2022-08-08T12:26:58.289Z,1.43
2022-08-08T12:29:42.311Z,1.50
2022-08-08T12:32:19.848Z,1.50
2022-08-08T12:35:18.251Z,1.17
2022-08-08T12:38:02.501Z,1.27
2022-08-08T12:40:58.383Z,1.00
2022-08-08T12:43:46.174Z,1.20
2022-08-08T12:46:26.038Z,1.00
2022-08-08T12:51:59.091Z,1.30
2022-08-08T12:54:41.000Z,1.33
2022-08-08T12:57:17.866Z,1.60
2022-08-08T13:00:05.932Z,1.40
2022-08-08T13:02:51.702Z,1.50
2022-08-08T13:05:26.203Z,1.37
2022-08-08T13:08:20.480Z,1.27
2022-08-08T13:10:58.208Z,1.60
2022-08-08T13:13:35.366Z,1.27
2022-08-08T13:16:25.470Z,1.67
2022-08-08T13:19:01.674Z,1.50
2022-08-08T13:21:53.480Z,1.83
2022-08-08T13:24:40.569Z,1.40
2022-08-08T13:27:15.219Z,1.13
2022-08-08T13:29:53.750Z,1.30
2022-08-08T13:32:23.634Z,1.07
2022-08-08T13:34:57.268Z,1.30
2022-08-08T13:38:03.243Z,1.53
2022-08-08T13:40:26.387Z,1.43
2022-08-08T13:42:55.536Z,1.67
2022-08-08T13:45:24.266Z,1.10
2022-08-08T13:47:59.891Z,1.10
2022-08-08T13:50:37.543Z,1.50
2022-08-08T13:53:24.431Z,1.20
2022-08-08T13:56:01.258Z,1.43
2022-08-08T13:58:30.123Z,1.00
2022-08-08T14:00:57.528Z,1.33
2022-08-08T14:03:52.307Z,1.20
2022-08-08T14:06:33.503Z,1.40
2022-08-08T14:09:24.954Z,1.47
2022-08-08T14:11:50.514Z,1.30
2022-08-08T14:14:20.898Z,1.53
2022-08-08T14:16:53.501Z,1.43
2022-08-08T14:19:57.256Z,1.50
2022-08-08T14:22:22.332Z,1.20
2022-08-08T14:25:00.765Z,1.40
2022-08-08T14:27:40.467Z,2.00
2022-08-08T14:30:19.218Z,1.10
2022-08-08T14:32:52.822Z,1.37
2022-08-08T14:35:25.020Z,1.30
2022-08-08T14:38:33.618Z,1.40
2022-08-08T14:40:58.907Z,1.37
2022-08-08T14:44:02.524Z,2.20
2022-08-08T14:46:30.954Z,1.03
2022-08-08T14:49:09.070Z,1.70
2022-08-08T14:51:51.921Z,1.30
2022-08-08T14:54:29.295Z,1.80
2022-08-08T14:56:58.468Z,1.50
2022-08-08T14:59:44.314Z,1.40
2022-08-08T15:02:28.229Z,1.47
2022-08-08T15:05:08.026Z,1.17
2022-08-08T15:07:40.250Z,1.33
2022-08-08T15:10:09.522Z,1.40
2022-08-08T15:12:38.591Z,1.40
2022-08-08T15:15:09.540Z,1.47
2022-08-08T15:17:39.600Z,1.43
2022-08-08T15:20:13.900Z,1.40
2022-08-08T15:22:44.623Z,1.00
2022-08-08T15:25:17.985Z,1.60
2022-08-08T15:28:34.215Z,1.10
2022-08-08T15:30:45.825Z,1.60
2022-08-08T15:33:35.083Z,1.40
2022-08-08T15:36:03.336Z,1.47
2022-08-08T15:38:30.334Z,1.20
2022-08-08T15:40:57.613Z,1.17
2022-08-08T15:43:36.493Z,1.37
2022-08-08T15:46:05.591Z,1.50
2022-08-08T15:48:32.883Z,1.37
2022-08-08T15:51:06.472Z,1.30
2022-08-08T15:53:49.181Z,1.50
2022-08-08T15:56:20.018Z,1.50
2022-08-08T15:58:49.406Z,1.53
2022-08-08T16:01:18.095Z,1.50
2022-08-08T16:03:45.977Z,1.30
2022-08-08T16:06:28.907Z,1.73
2022-08-08T16:13:00.383Z,1.20
2022-08-08T16:13:02.008Z,1.23
2022-08-08T16:14:35.588Z,1.27
2022-08-08T16:17:05.629Z,1.40
2022-08-08T16:20:00.300Z,1.10
2022-08-08T16:22:30.382Z,1.30
2022-08-08T16:24:58.693Z,1.77
2022-08-08T16:27:25.951Z,1.40
2022-08-08T16:30:13.334Z,1.20
2022-08-08T16:32:41.935Z,1.20
2022-08-08T16:35:09.937Z,1.17
2022-08-08T16:37:40.319Z,1.50
2022-08-08T16:40:12.743Z,1.53
2022-08-08T16:42:44.692Z,1.10
2022-08-08T16:46:37.018Z,1.33
2022-08-08T16:48:06.672Z,1.57
2022-08-08T16:50:33.662Z,1.60
2022-08-08T16:55:24.359Z,1.20
2022-08-08T16:55:53.125Z,1.50
2022-08-08T16:58:26.593Z,1.50
2022-08-08T17:00:59.062Z,1.67
2022-08-08T17:03:58.084Z,1.80
2022-08-08T17:06:36.149Z,1.00
2022-08-08T17:09:01.059Z,1.13
2022-08-08T17:11:38.873Z,1.40
2022-08-08T17:14:19.208Z,1.07
2022-08-08T17:16:57.378Z,1.30
2022-08-08T17:19:30.181Z,1.23
2022-08-08T17:22:01.445Z,1.20
2022-08-08T17:24:31.633Z,1.30
2022-08-08T17:27:01.121Z,1.50
2022-08-08T17:29:33.703Z,1.20
2022-08-08T17:32:03.019Z,1.37
2022-08-08T17:34:35.946Z,1.30
2022-08-08T17:37:11.257Z,1.53
2022-08-08T17:40:03.062Z,1.20
2022-08-08T17:42:27.097Z,1.13
2022-08-08T17:44:54.671Z,1.20
2022-08-08T17:47:27.980Z,1.47
2022-08-08T17:50:06.984Z,1.70
2022-08-08T17:52:35.107Z,1.27
2022-08-08T17:55:05.438Z,1.30
2022-08-08T17:57:51.868Z,1.20
2022-08-08T18:00:25.776Z,1.53
2022-08-08T18:03:07.828Z,1.30
2022-08-08T18:05:49.547Z,1.57
2022-08-08T18:08:24.604Z,1.40
2022-08-08T18:11:23.826Z,1.33
2022-08-08T18:13:56.487Z,1.87
2022-08-08T18:16:27.005Z,1.10
2022-08-08T18:18:59.100Z,1.20
2022-08-08T18:21:59.749Z,1.47
2022-08-08T18:24:28.152Z,1.27
2022-08-08T18:27:00.738Z,1.57
2022-08-08T18:29:37.193Z,1.30
2022-08-08T18:32:08.696Z,1.13
2022-08-08T18:34:39.489Z,1.40
2022-08-08T18:37:09.284Z,1.40
2022-08-08T18:39:38.583Z,1.47
2022-08-08T18:42:15.940Z,1.30
2022-08-08T18:44:54.738Z,1.37
2022-08-08T18:47:25.367Z,1.43
2022-08-08T18:49:58.914Z,1.27
2022-08-08T18:52:29.968Z,1.20
2022-08-08T18:55:00.699Z,1.10
2022-08-08T18:57:41.953Z,1.00
2022-08-08T19:00:21.160Z,1.57
2022-08-08T19:03:03.963Z,1.23
2022-08-08T19:05:38.481Z,1.33
2022-08-08T19:08:25.690Z,1.53
2022-08-08T19:11:01.460Z,1.50
2022-08-08T19:13:53.387Z,1.30
2022-08-08T19:16:20.327Z,1.47
2022-08-08T19:19:02.673Z,1.80
2022-08-08T19:21:33.469Z,1.47
2022-08-08T19:24:42.467Z,1.40
2022-08-08T19:27:06.988Z,1.63
2022-08-08T19:29:42.462Z,1.30
2022-08-08T19:32:21.941Z,1.50
2022-08-08T19:34:51.512Z,1.40
2022-08-08T19:37:22.071Z,1.33
2022-08-08T19:40:15.971Z,1.40
2022-08-08T19:42:44.474Z,1.57
2022-08-08T19:45:14.013Z,1.60
2022-08-08T19:47:41.426Z,1.70
2022-08-08T19:50:09.657Z,1.80
2022-08-08T19:52:59.146Z,1.70
2022-08-08T19:55:27.267Z,1.40
2022-08-08T19:58:00.773Z,1.83
2022-08-08T20:00:32.776Z,1.73
2022-08-08T20:03:14.720Z,2.20
2022-08-08T20:06:15.098Z,2.03
2022-08-08T20:08:45.990Z,1.90
2022-08-08T20:11:15.630Z,1.90
2022-08-08T20:14:34.754Z,1.93
2022-08-08T20:16:30.586Z,1.67
2022-08-08T20:18:57.564Z,1.70
2022-08-08T20:21:26.238Z,1.60
2022-08-08T20:23:57.417Z,1.87
2022-08-08T20:26:29.892Z,1.87
2022-08-08T20:29:03.081Z,2.47
2022-08-08T20:32:02.505Z,1.83
2022-08-08T20:34:29.584Z,1.70
2022-08-08T20:37:03.862Z,1.90
2022-08-08T20:39:41.471Z,1.80
2022-08-08T20:42:28.668Z,1.97
2022-08-08T20:44:57.730Z,1.80
2022-08-08T20:47:25.963Z,1.40
2022-08-08T20:49:54.332Z,1.87
2022-08-08T20:52:24.833Z,1.47
2022-08-08T20:54:52.057Z,1.80
2022-08-08T20:57:28.915Z,1.47
2022-08-08T20:59:57.471Z,1.60
2022-08-08T21:02:27.708Z,1.73
2022-08-08T21:05:01.016Z,1.30
2022-08-08T21:07:47.840Z,1.60
2022-08-08T21:10:17.865Z,2.07
2022-08-08T21:12:52.915Z,1.87
2022-08-08T21:16:06.030Z,1.80
2022-08-08T21:18:09.808Z,1.63
2022-08-08T21:20:42.017Z,1.53
2022-08-08T21:23:09.835Z,1.33
2022-08-08T21:25:40.709Z,1.87
2022-08-08T21:28:15.835Z,3.17
2022-08-08T21:30:45.194Z,1.53
2022-08-08T21:33:16.945Z,2.43
2022-08-08T21:36:16.992Z,2.00
2022-08-08T21:38:31.266Z,2.43
2022-08-08T21:40:58.494Z,2.20
2022-08-08T21:43:33.691Z,2.07
2022-08-08T21:48:05.361Z,2.30
2022-08-08T21:48:57.757Z,1.90
2022-08-08T21:54:31.286Z,2.00
2022-08-08T21:54:54.100Z,1.83
2022-08-08T21:57:06.116Z,1.83
2022-08-08T22:00:03.041Z,2.13
2022-08-08T22:02:23.399Z,2.47
2022-08-08T22:04:59.131Z,2.23
2022-08-08T22:07:34.781Z,2.43
2022-08-08T22:10:18.621Z,2.20
2022-08-08T22:13:17.372Z,1.60
2022-08-08T22:15:59.043Z,1.50
2022-08-08T22:18:32.944Z,1.70
2022-08-08T22:21:13.986Z,1.97
2022-08-08T22:23:51.851Z,2.03
2022-08-08T22:26:29.200Z,1.93
2022-08-08T22:29:14.712Z,2.07
2022-08-08T22:31:58.462Z,1.90
2022-08-08T22:34:31.336Z,2.10
2022-08-08T22:36:59.482Z,1.97
2022-08-08T22:39:28.398Z,2.03
2022-08-08T22:42:14.200Z,2.17
2022-08-08T22:44:54.801Z,2.13
2022-08-08T22:47:21.887Z,2.27
2022-08-08T22:49:54.179Z,2.00
2022-08-08T22:52:33.714Z,2.10
2022-08-08T22:55:05.923Z,2.00
2022-08-08T22:57:43.990Z,2.20
2022-08-08T23:00:17.214Z,2.23
2022-08-08T23:02:50.319Z,2.27
2022-08-08T23:05:17.954Z,2.27
2022-08-08T23:07:57.805Z,1.90
2022-08-08T23:10:27.015Z,2.07
2022-08-08T23:12:55.333Z,2.03
2022-08-08T23:16:38.624Z,2.13
2022-08-08T23:18:11.514Z,2.30
2022-08-08T23:20:43.440Z,2.47
2022-08-08T23:23:12.380Z,2.57
2022-08-08T23:25:48.522Z,2.73
2022-08-08T23:28:18.177Z,2.27
2022-08-08T23:30:47.693Z,2.00
2022-08-08T23:33:21.195Z,2.37
2022-08-08T23:36:07.991Z,2.60
2022-08-08T23:38:36.541Z,2.30
2022-08-08T23:41:17.290Z,2.23
2022-08-08T23:43:50.423Z,1.90
2022-08-08T23:49:04.182Z,2.40
2022-08-08T23:49:14.894Z,2.60
2022-08-08T23:52:05.910Z,2.33
2022-08-08T23:54:42.705Z,1.90
2022-08-08T23:57:29.762Z,2.70
